createdAt,value
2023-03-01T00:01:09.034Z,97.53
2023-03-01T00:06:15.421Z,101.20
2023-03-01T00:11:24.985Z,92.88
2023-03-01T00:16:37.304Z,93.32
2023-03-01T00:21:44.128Z,81.32
2023-03-01T00:26:50.428Z,90.75
2023-03-01T00:31:56.911Z,91.13
2023-03-01T00:37:08.459Z,93.03
2023-03-01T00:42:14.723Z,79.22
2023-03-01T00:52:26.440Z,87.85
2023-03-01T01:02:38.528Z,83.60
2023-03-01T01:07:45.513Z,81.80
2023-03-01T01:12:51.765Z,85.60
2023-03-01T01:17:57.913Z,84.22
2023-03-01T01:23:04.420Z,87.18
2023-03-01T01:28:10.562Z,85.50
2023-03-01T01:38:24.240Z,82.27
2023-03-01T01:43:41.421Z,97.15
2023-03-01T01:49:02.013Z,103.47
2023-03-01T01:54:41.421Z,95.93
2023-03-01T01:59:51.103Z,120.95
2023-03-01T02:05:06.758Z,132.23
2023-03-01T02:10:14.081Z,115.22
2023-03-01T02:15:22.453Z,129.90
2023-03-01T02:20:38.599Z,114.03
2023-03-01T02:25:45.087Z,115.35
2023-03-01T02:36:23.142Z,135.00
2023-03-01T02:41:32.888Z,131.43
2023-03-01T02:46:53.820Z,129.65
2023-03-01T02:52:19.839Z,133.00
2023-03-01T02:57:30.098Z,131.27
2023-03-01T03:02:39.688Z,134.48
2023-03-01T03:07:54.877Z,134.52
2023-03-01T03:13:10.393Z,132.23
2023-03-01T03:18:23.020Z,136.52
2023-03-01T03:23:29.569Z,128.40
2023-03-01T03:33:42.490Z,131.83
2023-03-01T03:43:55.093Z,124.20
2023-03-01T03:49:05.301Z,138.13
2023-03-01T03:54:29.691Z,127.00
2023-03-01T03:59:36.415Z,131.75
2023-03-01T04:04:42.907Z,137.55
2023-03-01T04:09:49.037Z,142.23
2023-03-01T04:14:55.270Z,109.93
2023-03-01T04:25:17.134Z,117.75
2023-03-01T04:30:28.150Z,132.63
2023-03-01T04:35:37.492Z,133.07
2023-03-01T04:40:45.275Z,123.28
2023-03-01T04:45:53.543Z,135.05
2023-03-01T04:51:00.714Z,132.45
2023-03-01T04:56:16.783Z,126.38
2023-03-01T05:01:24.265Z,126.93
2023-03-01T05:06:30.844Z,127.03
2023-03-01T05:11:38.738Z,95.63
2023-03-01T05:16:45.197Z,110.07
2023-03-01T05:22:07.591Z,137.20
2023-03-01T05:27:14.977Z,119.93
2023-03-01T05:32:22.161Z,113.97
2023-03-01T05:37:28.370Z,129.02
2023-03-01T05:47:46.223Z,157.70
2023-03-01T05:53:19.396Z,216.32
2023-03-01T05:58:26.917Z,167.85
2023-03-01T06:03:36.451Z,174.88
2023-03-01T06:08:42.956Z,169.52
2023-03-01T06:13:49.662Z,132.25
2023-03-01T06:18:55.861Z,151.82
2023-03-01T06:29:08.065Z,136.75
2023-03-01T06:34:30.101Z,130.65
2023-03-01T06:39:37.192Z,138.63
2023-03-01T06:44:43.552Z,154.82
2023-03-01T06:49:49.827Z,120.20
2023-03-01T07:00:04.807Z,147.65
2023-03-01T07:05:11.431Z,130.02
2023-03-01T07:10:20.581Z,129.20
2023-03-01T07:15:27.830Z,129.20
2023-03-01T07:20:34.233Z,143.93
2023-03-01T07:30:47.526Z,135.65
2023-03-01T07:36:04.088Z,148.48
2023-03-01T07:46:15.917Z,118.70
2023-03-01T07:51:25.200Z,111.72
2023-03-01T07:56:31.784Z,102.20
2023-03-01T08:01:38.022Z,96.63
2023-03-01T08:06:46.862Z,101.82
2023-03-01T08:11:52.892Z,110.97
2023-03-01T08:17:00.609Z,88.95
2023-03-01T08:22:07.386Z,89.93
2023-03-01T08:27:14.967Z,75.57
2023-03-01T08:32:21.717Z,104.68
2023-03-01T08:37:29.302Z,65.20
2023-03-01T08:42:37.076Z,97.30
2023-03-01T08:47:44.283Z,84.30
2023-03-01T08:52:50.572Z,83.97
2023-03-01T08:57:57.101Z,87.45
2023-03-01T09:03:03.399Z,94.28
2023-03-01T09:13:18.116Z,69.68
2023-03-01T09:18:24.121Z,62.25
2023-03-01T09:23:30.425Z,86.13
2023-03-01T09:28:37.158Z,59.55
2023-03-01T09:33:45.072Z,66.75
2023-03-01T09:38:51.855Z,92.45
2023-03-01T09:44:03.983Z,85.55
2023-03-01T09:49:22.466Z,78.45
2023-03-01T09:54:29.095Z,72.47
2023-03-01T10:00:02.978Z,72.38
2023-03-01T10:05:25.869Z,70.78
2023-03-01T10:10:37.603Z,71.35
2023-03-01T10:16:03.371Z,83.38
2023-03-01T10:21:21.894Z,69.77
2023-03-01T10:26:58.686Z,86.60
2023-03-01T10:32:09.283Z,83.63
2023-03-01T10:37:22.867Z,77.65
2023-03-01T10:42:35.219Z,77.07
2023-03-01T10:47:41.588Z,75.22
2023-03-01T10:53:03.341Z,80.63
2023-03-01T10:58:25.055Z,75.82
2023-03-01T11:03:40.876Z,85.35
2023-03-01T11:08:54.971Z,83.47
2023-03-01T11:14:05.143Z,71.30
2023-03-01T11:19:15.888Z,76.95
2023-03-01T11:24:25.585Z,67.07
2023-03-01T12:19:25.360Z,104.70
2023-03-01T12:37:53.501Z,112.90
2023-03-01T12:43:22.038Z,148.30
2023-03-01T12:48:38.153Z,140.27
2023-03-01T12:53:54.552Z,148.25
2023-03-01T13:04:56.409Z,153.07
2023-03-01T13:10:09.822Z,113.85
2023-03-01T13:15:47.432Z,129.27
2023-03-01T13:20:58.983Z,127.35
2023-03-01T13:26:21.842Z,145.30
2023-03-01T13:31:41.991Z,137.60
2023-03-01T13:36:52.876Z,127.32
2023-03-01T13:42:00.958Z,116.45
2023-03-01T13:47:21.637Z,168.15
2023-03-01T13:53:20.126Z,151.63
2023-03-01T13:58:37.940Z,172.95
2023-03-01T14:03:50.299Z,166.50
2023-03-01T14:09:20.611Z,140.38
2023-03-01T14:14:51.362Z,133.43
2023-03-01T14:20:07.287Z,144.52
2023-03-01T14:25:33.327Z,170.35
2023-03-01T14:30:53.234Z,180.52
2023-03-01T14:36:09.842Z,130.38
2023-03-01T14:41:32.076Z,133.23
2023-03-01T14:46:48.780Z,133.40
2023-03-01T14:52:08.719Z,124.70
2023-03-01T14:57:34.558Z,142.38
2023-03-01T15:02:42.419Z,165.35
2023-03-01T15:07:52.631Z,125.25
2023-03-01T15:12:59.989Z,126.63
2023-03-01T15:18:16.740Z,155.75
2023-03-01T15:23:30.260Z,139.30
2023-03-01T15:28:53.343Z,167.50
2023-03-01T15:34:26.395Z,141.35
2023-03-01T15:40:05.688Z,193.83
2023-03-01T15:45:26.572Z,186.98
2023-03-01T15:50:39.015Z,165.27
2023-03-01T15:55:46.642Z,170.50
2023-03-01T16:01:01.180Z,150.27
2023-03-01T16:06:08.224Z,164.18
2023-03-01T16:11:21.989Z,158.20
2023-03-01T16:16:28.285Z,181.43
2023-03-01T16:21:36.268Z,150.90
2023-03-01T16:26:42.815Z,140.85
2023-03-01T16:31:49.586Z,145.32
2023-03-01T16:36:56.017Z,120.38
2023-03-01T16:42:04.545Z,130.80
2023-03-01T16:47:10.627Z,120.72
2023-03-01T16:52:17.164Z,102.35
2023-03-01T16:57:23.359Z,114.47
2023-03-01T17:07:36.890Z,124.80
2023-03-01T17:12:43.288Z,120.32
2023-03-01T17:17:53.421Z,92.75
2023-03-01T17:23:00.207Z,112.20
2023-03-01T17:28:06.199Z,121.95
2023-03-01T17:33:12.506Z,119.70
2023-03-01T17:43:24.414Z,81.65
2023-03-01T17:48:30.875Z,101.15
2023-03-01T17:53:37.725Z,103.35
2023-03-01T17:58:44.097Z,102.90
2023-03-01T18:03:50.389Z,72.95
2023-03-01T18:08:56.900Z,104.57
2023-03-01T18:14:03.665Z,77.72
2023-03-01T18:19:09.859Z,132.93
2023-03-01T18:24:15.983Z,120.05
2023-03-01T18:34:28.476Z,134.48
2023-03-01T18:44:40.131Z,95.82
2023-03-01T18:49:46.817Z,114.20
2023-03-01T18:54:52.893Z,87.03
2023-03-01T18:59:59.273Z,70.18
2023-03-01T19:05:05.803Z,107.07
2023-03-01T19:15:18.323Z,98.03
2023-03-01T19:20:24.256Z,101.65
2023-03-01T19:30:36.276Z,108.93
2023-03-01T19:35:42.545Z,186.18
2023-03-01T19:40:48.992Z,106.57
2023-03-01T19:45:56.792Z,158.63
2023-03-01T19:51:03.014Z,122.68
2023-03-01T19:56:09.888Z,158.45
2023-03-01T20:01:25.875Z,123.03
2023-03-01T20:06:32.971Z,144.30
2023-03-01T20:11:39.517Z,158.82
2023-03-01T20:16:46.142Z,150.43
2023-03-01T20:26:57.900Z,116.05
2023-03-01T20:32:04.785Z,136.75
2023-03-01T20:37:11.221Z,161.20
2023-03-01T20:42:18.160Z,146.73
2023-03-01T20:47:24.917Z,128.15
2023-03-01T20:52:39.292Z,141.43
2023-03-01T20:57:49.351Z,109.28
2023-03-01T21:02:55.957Z,117.18
2023-03-01T21:08:04.675Z,148.10
2023-03-01T21:13:12.292Z,130.40
2023-03-01T21:18:19.128Z,131.18
2023-03-01T21:23:25.652Z,106.05
2023-03-01T21:33:42.081Z,142.50
2023-03-01T21:38:50.726Z,153.38
2023-03-01T21:44:04.782Z,163.02
2023-03-01T21:49:14.121Z,131.00
2023-03-01T21:54:21.642Z,121.72
2023-03-01T21:59:28.664Z,131.57
2023-03-01T22:04:34.865Z,122.28
2023-03-01T22:09:42.146Z,115.00
2023-03-01T22:14:48.590Z,76.43
2023-03-01T22:19:54.786Z,92.07
2023-03-01T22:25:01.126Z,73.32
2023-03-01T22:30:12.801Z,153.13
2023-03-01T22:35:19.118Z,103.18
2023-03-01T22:45:34.274Z,100.05
2023-03-01T22:50:41.334Z,80.47
2023-03-01T22:55:48.240Z,112.70
2023-03-01T23:00:54.722Z,106.68
2023-03-01T23:06:01.272Z,82.82
2023-03-01T23:11:11.923Z,103.85
2023-03-01T23:16:19.158Z,117.65
2023-03-01T23:21:25.365Z,123.57
2023-03-01T23:26:32.738Z,81.47
2023-03-01T23:31:41.586Z,120.30
2023-03-01T23:36:49.346Z,90.68
2023-03-01T23:41:55.877Z,119.60
2023-03-01T23:47:02.739Z,133.00
2023-03-01T23:52:09.512Z,87.13
2023-03-01T23:57:15.463Z,81.28
